createdAt,value
2019-01-04T00:00:25.747Z,1028.29
2019-01-04T00:01:25.747Z,1028.27
2019-01-04T00:02:25.731Z,1028.26
2019-01-04T00:03:25.763Z,1028.28
2019-01-04T00:04:25.702Z,1028.29
2019-01-04T00:05:25.698Z,1028.32
2019-01-04T00:06:25.680Z,1028.33
2019-01-04T00:07:25.675Z,1028.36
2019-01-04T00:08:25.664Z,1028.32
2019-01-04T00:09:25.690Z,1028.34
2019-01-04T00:10:25.645Z,1028.39
2019-01-04T00:11:25.636Z,1028.33
2019-01-04T00:12:25.625Z,1028.34
2019-01-04T00:13:25.614Z,1028.31
2019-01-04T00:14:25.606Z,1028.31
2019-01-04T00:15:25.627Z,1028.32
2019-01-04T00:16:25.584Z,1028.23
2019-01-04T00:17:25.568Z,1028.17
2019-01-04T00:18:25.558Z,1028.17
2019-01-04T00:19:25.552Z,1028.19
2019-01-04T00:20:25.551Z,1028.16
2019-01-04T00:21:25.538Z,1028.16
2019-01-04T00:22:25.520Z,1028.15
2019-01-04T00:23:25.506Z,1028.14
2019-01-04T00:24:25.502Z,1028.14
2019-01-04T00:25:25.491Z,1028.13
2019-01-04T00:26:25.484Z,1028.14
2019-01-04T00:27:25.464Z,1028.13
2019-01-04T00:28:25.459Z,1028.19
2019-01-04T00:29:25.446Z,1028.20
2019-01-04T00:30:25.439Z,1028.26
2019-01-04T00:31:25.432Z,1028.21
2019-01-04T00:32:25.413Z,1028.19
2019-01-04T00:33:25.408Z,1028.23
2019-01-04T00:34:25.400Z,1028.25
2019-01-04T00:35:25.382Z,1028.20
2019-01-04T00:36:33.319Z,1028.21
2019-01-04T00:37:25.360Z,1028.24
2019-01-04T00:38:25.384Z,1028.22
2019-01-04T00:39:25.350Z,1028.18
2019-01-04T00:40:25.336Z,1028.20
2019-01-04T00:41:25.326Z,1028.23
2019-01-04T00:42:25.316Z,1028.29
2019-01-04T00:43:25.307Z,1028.23
2019-01-04T00:44:25.341Z,1028.28
2019-01-04T00:45:25.287Z,1028.25
2019-01-04T00:46:25.276Z,1028.25
2019-01-04T00:47:25.265Z,1028.24
2019-01-04T00:48:25.256Z,1028.20
2019-01-04T00:49:25.238Z,1028.20
2019-01-04T00:50:25.249Z,1028.17
2019-01-04T00:51:25.223Z,1028.16
2019-01-04T00:52:25.210Z,1028.16
2019-01-04T00:53:25.197Z,1028.15
2019-01-04T00:54:25.191Z,1028.18
2019-01-04T00:55:25.188Z,1028.20
2019-01-04T00:56:25.173Z,1028.16
2019-01-04T00:57:25.162Z,1028.14
2019-01-04T00:58:25.152Z,1028.11
2019-01-04T00:59:25.141Z,1028.11
2019-01-04T01:00:25.134Z,1028.11
2019-01-04T01:01:25.118Z,1028.11
2019-01-04T01:02:25.109Z,1028.10
2019-01-04T01:03:25.106Z,1028.11
2019-01-04T01:04:25.086Z,1028.08
2019-01-04T01:05:25.079Z,1028.08
2019-01-04T01:06:25.085Z,1028.14
2019-01-04T01:07:25.051Z,1028.15
2019-01-04T01:08:25.047Z,1028.11
2019-01-04T01:09:25.047Z,1028.11
2019-01-04T01:10:25.028Z,1028.14
2019-01-04T01:11:25.038Z,1028.11
2019-01-04T01:12:25.005Z,1028.10
2019-01-04T01:13:24.996Z,1028.14
2019-01-04T01:14:24.978Z,1028.12
2019-01-04T01:15:24.976Z,1028.11
2019-01-04T01:16:24.959Z,1028.10
2019-01-04T01:17:24.989Z,1028.09
2019-01-04T01:18:24.942Z,1028.08
2019-01-04T01:19:24.936Z,1028.14
2019-01-04T01:20:24.920Z,1028.13
2019-01-04T01:21:24.908Z,1028.19
2019-01-04T01:22:24.899Z,1028.16
2019-01-04T01:23:24.906Z,1028.21
2019-01-04T01:24:24.877Z,1028.16
2019-01-04T01:25:24.865Z,1028.12
2019-01-04T01:26:24.863Z,1028.13
2019-01-04T01:27:24.858Z,1028.13
2019-01-04T01:28:24.835Z,1028.10
2019-01-04T01:29:24.830Z,1028.14
2019-01-04T01:30:24.829Z,1028.11
2019-01-04T01:31:24.809Z,1028.10
2019-01-04T01:32:24.805Z,1028.15
2019-01-04T01:33:24.789Z,1028.18
2019-01-04T01:34:24.787Z,1028.12
2019-01-04T01:35:24.769Z,1028.13
2019-01-04T01:36:24.859Z,1028.11
2019-01-04T01:37:24.748Z,1028.15
2019-01-04T01:38:24.732Z,1028.18
2019-01-04T01:39:24.726Z,1028.22
2019-01-04T01:40:24.717Z,1028.16
2019-01-04T01:41:24.702Z,1028.20
2019-01-04T01:42:24.701Z,1028.14
2019-01-04T01:43:24.680Z,1028.14
2019-01-04T01:44:24.669Z,1028.09
2019-01-04T01:45:24.670Z,1028.03
2019-01-04T01:46:24.654Z,1028.01
2019-01-04T01:47:24.661Z,1028.01
2019-01-04T01:48:24.628Z,1027.95
2019-01-04T01:49:24.618Z,1027.97
2019-01-04T01:50:24.616Z,1027.99
2019-01-04T01:51:24.601Z,1027.97
2019-01-04T01:52:24.593Z,1027.99
2019-01-04T01:53:24.581Z,1028.02
2019-01-04T01:54:24.565Z,1027.97
2019-01-04T01:55:24.564Z,1027.99
2019-01-04T01:56:24.549Z,1027.98
2019-01-04T01:57:24.535Z,1027.92
2019-01-04T01:58:24.544Z,1027.95
2019-01-04T01:59:24.518Z,1027.97
2019-01-04T02:00:24.505Z,1027.93
2019-01-04T02:01:24.492Z,1027.89
2019-01-04T02:02:24.481Z,1027.88
2019-01-04T02:03:24.478Z,1027.85
2019-01-04T02:04:24.477Z,1027.89
2019-01-04T02:05:24.449Z,1027.82
2019-01-04T02:06:24.455Z,1027.78
2019-01-04T02:07:24.428Z,1027.77
2019-01-04T02:08:24.422Z,1027.79
2019-01-04T02:09:24.423Z,1027.81
2019-01-04T02:10:24.403Z,1027.79
2019-01-04T02:11:24.403Z,1027.78
2019-01-04T02:12:24.376Z,1027.79
2019-01-04T02:13:24.368Z,1027.78
2019-01-04T02:14:24.361Z,1027.79
2019-01-04T02:15:24.351Z,1027.79
2019-01-04T02:16:24.335Z,1027.84
2019-01-04T02:17:24.366Z,1027.81
2019-01-04T02:18:24.319Z,1027.77
2019-01-04T02:19:24.304Z,1027.77
2019-01-04T02:20:24.298Z,1027.78
2019-01-04T02:21:24.282Z,1027.77
2019-01-04T02:22:24.281Z,1027.74
2019-01-04T02:23:24.269Z,1027.72
2019-01-04T02:24:24.251Z,1027.65
2019-01-04T02:25:24.241Z,1027.66
2019-01-04T02:26:24.229Z,1027.59
2019-01-04T02:27:24.224Z,1027.63
2019-01-04T02:28:24.223Z,1027.61
2019-01-04T02:29:24.198Z,1027.60
2019-01-04T02:30:24.198Z,1027.54
2019-01-04T02:31:24.182Z,1027.59
2019-01-04T02:32:24.172Z,1027.53
2019-01-04T02:33:24.173Z,1027.57
2019-01-04T02:34:24.154Z,1027.56
2019-01-04T02:35:24.147Z,1027.57
2019-01-04T02:36:24.132Z,1027.54
2019-01-04T02:37:24.114Z,1027.60
2019-01-04T02:38:24.108Z,1027.61
2019-01-04T02:39:24.106Z,1027.59
2019-01-04T02:40:24.084Z,1027.59
2019-01-04T02:41:24.083Z,1027.53
2019-01-04T02:42:24.067Z,1027.50
2019-01-04T02:43:24.060Z,1027.47
2019-01-04T02:44:24.053Z,1027.43
2019-01-04T02:45:24.032Z,1027.42
2019-01-04T02:46:24.026Z,1027.38
2019-01-04T02:47:24.009Z,1027.39
2019-01-04T02:48:24.014Z,1027.41
2019-01-04T02:49:24.001Z,1027.37
2019-01-04T02:50:23.978Z,1027.39
2019-01-04T02:51:23.973Z,1027.37
2019-01-04T02:52:23.957Z,1027.29
2019-01-04T02:53:23.945Z,1027.35
2019-01-04T02:54:23.977Z,1027.34
2019-01-04T02:55:23.932Z,1027.30
2019-01-04T02:56:23.921Z,1027.29
2019-01-04T02:57:23.903Z,1027.26
2019-01-04T02:58:23.897Z,1027.26
2019-01-04T02:59:23.891Z,1027.24
2019-01-04T03:00:23.885Z,1027.21
2019-01-04T03:01:23.871Z,1027.21
2019-01-04T03:02:23.858Z,1027.23
2019-01-04T03:03:23.840Z,1027.23
2019-01-04T03:04:23.831Z,1027.23
2019-01-04T03:05:23.856Z,1027.24
2019-01-04T03:06:23.812Z,1027.23
2019-01-04T03:07:23.798Z,1027.27
2019-01-04T03:08:23.788Z,1027.26
2019-01-04T03:09:23.780Z,1027.27
2019-01-04T03:10:23.768Z,1027.30
2019-01-04T03:11:23.784Z,1027.26
2019-01-04T03:12:23.761Z,1027.22
2019-01-04T03:13:23.739Z,1027.19
2019-01-04T03:14:23.732Z,1027.17
2019-01-04T03:15:23.719Z,1027.13
2019-01-04T03:16:23.711Z,1027.09
2019-01-04T03:17:23.706Z,1027.04
2019-01-04T03:18:23.692Z,1027.08
2019-01-04T03:19:23.678Z,1027.04
2019-01-04T03:20:23.661Z,1027.07
2019-01-04T03:21:23.651Z,1027.01
2019-01-04T03:22:23.649Z,1026.99
2019-01-04T03:23:23.635Z,1026.95
2019-01-04T03:24:23.625Z,1026.93
2019-01-04T03:25:23.617Z,1026.92
2019-01-04T03:26:23.598Z,1026.93
2019-01-04T03:27:23.606Z,1026.89
2019-01-04T03:28:23.579Z,1026.87
2019-01-04T03:29:23.567Z,1026.84
2019-01-04T03:30:23.558Z,1026.85
2019-01-04T03:31:23.553Z,1026.81
2019-01-04T03:32:23.541Z,1026.79
2019-01-04T03:33:23.540Z,1026.79
2019-01-04T03:34:23.515Z,1026.77
2019-01-04T03:35:23.505Z,1026.78
2019-01-04T03:36:23.493Z,1026.76
2019-01-04T03:37:23.483Z,1026.72
2019-01-04T03:38:23.490Z,1026.69
2019-01-04T03:39:23.468Z,1026.73
2019-01-04T03:40:23.458Z,1026.69
2019-01-04T03:41:23.442Z,1026.69
2019-01-04T03:42:23.439Z,1026.66
2019-01-04T03:43:23.433Z,1026.65
2019-01-04T03:44:23.427Z,1026.63
2019-01-04T03:45:23.407Z,1026.57
2019-01-04T03:46:23.395Z,1026.59
2019-01-04T03:47:23.383Z,1026.58
2019-01-04T03:48:23.368Z,1026.58
2019-01-04T03:49:23.366Z,1026.60
2019-01-04T03:50:23.349Z,1026.60
2019-01-04T03:51:23.340Z,1026.53
2019-01-04T03:52:23.346Z,1026.53
2019-01-04T03:53:23.321Z,1026.47
2019-01-04T03:54:23.316Z,1026.44
2019-01-04T03:55:23.300Z,1026.43
2019-01-04T03:56:23.289Z,1026.41
2019-01-04T03:57:23.272Z,1026.38
2019-01-04T03:58:23.265Z,1026.39
2019-01-04T03:59:23.269Z,1026.37
2019-01-04T04:00:23.254Z,1026.34
2019-01-04T04:01:23.247Z,1026.28
2019-01-04T04:02:23.225Z,1026.27
2019-01-04T04:03:23.214Z,1026.27
2019-01-04T04:04:23.201Z,1026.29
2019-01-04T04:05:23.190Z,1026.26
2019-01-04T04:06:23.204Z,1026.27
2019-01-04T04:07:23.174Z,1026.21
2019-01-04T04:08:23.157Z,1026.20
2019-01-04T04:09:23.148Z,1026.16
2019-01-04T04:10:23.139Z,1026.15
2019-01-04T04:11:23.140Z,1026.18
2019-01-04T04:12:23.131Z,1026.16
2019-01-04T04:13:23.107Z,1026.20
2019-01-04T04:14:23.098Z,1026.15
2019-01-04T04:15:23.089Z,1026.17
2019-01-04T04:16:23.076Z,1026.15
2019-01-04T04:17:23.073Z,1026.20
2019-01-04T04:18:23.065Z,1026.18
2019-01-04T04:19:23.052Z,1026.17
2019-01-04T04:20:23.037Z,1026.10
2019-01-04T04:21:23.023Z,1026.09
2019-01-04T04:22:23.011Z,1026.07
2019-01-04T04:23:23.008Z,1026.05
2019-01-04T04:24:22.990Z,1026.03
2019-01-04T04:25:22.985Z,1026.06
2019-01-04T04:26:22.968Z,1026.02
2019-01-04T04:27:23.002Z,1026.05
2019-01-04T04:28:22.954Z,1026.03
2019-01-04T04:29:22.939Z,1026.03
2019-01-04T04:30:22.927Z,1026.02
2019-01-04T04:31:22.923Z,1026.04
2019-01-04T04:32:22.913Z,1026.06
2019-01-04T04:33:22.915Z,1026.03
2019-01-04T04:34:22.887Z,1026.05
2019-01-04T04:35:22.878Z,1026.01
2019-01-04T04:36:22.864Z,1026.01
2019-01-04T04:37:22.855Z,1026.05
2019-01-04T04:38:22.859Z,1026.04
2019-01-04T04:39:22.851Z,1026.10
2019-01-04T04:40:22.823Z,1026.08
2019-01-04T04:41:22.818Z,1026.08
2019-01-04T04:42:22.805Z,1026.07
2019-01-04T04:43:22.793Z,1026.06
2019-01-04T04:44:22.791Z,1026.07
2019-01-04T04:45:22.778Z,1026.05
2019-01-04T04:46:22.759Z,1026.02
2019-01-04T04:47:22.750Z,1025.98
2019-01-04T04:48:22.738Z,1025.93
2019-01-04T04:49:22.742Z,1025.90
2019-01-04T04:50:22.725Z,1025.91
2019-01-04T04:51:22.709Z,1025.84
2019-01-04T04:52:22.706Z,1025.85
2019-01-04T04:53:22.688Z,1025.89
2019-01-04T04:54:22.693Z,1025.86
2019-01-04T04:55:22.669Z,1025.84
2019-01-04T04:56:22.655Z,1025.85
2019-01-04T04:57:22.657Z,1025.85
2019-01-04T04:58:22.638Z,1025.83
2019-01-04T04:59:30.839Z,1025.85
2019-01-04T05:00:22.629Z,1025.86
2019-01-04T05:01:22.606Z,1025.82
2019-01-04T05:02:22.605Z,1025.82
2019-01-04T05:03:22.590Z,1025.83
2019-01-04T05:04:22.574Z,1025.90
2019-01-04T05:05:22.601Z,1025.84
2019-01-04T05:06:22.561Z,1025.80
2019-01-04T05:07:22.548Z,1025.81
2019-01-04T05:08:22.533Z,1025.83
2019-01-04T05:09:22.526Z,1025.78
2019-01-04T05:10:22.517Z,1025.77
2019-01-04T05:11:22.512Z,1025.76
2019-01-04T05:12:22.497Z,1025.79
2019-01-04T05:13:22.485Z,1025.80
2019-01-04T05:14:22.474Z,1025.77
2019-01-04T05:15:22.469Z,1025.78
2019-01-04T05:16:22.449Z,1025.75
2019-01-04T05:17:22.444Z,1025.75
2019-01-04T05:18:22.436Z,1025.69
2019-01-04T05:19:22.418Z,1025.66
2019-01-04T05:20:22.415Z,1025.63
2019-01-04T05:21:22.437Z,1025.65
2019-01-04T05:22:22.389Z,1025.64
2019-01-04T05:23:22.385Z,1025.61
2019-01-04T05:24:22.363Z,1025.58
2019-01-04T05:25:22.362Z,1025.57
2019-01-04T05:26:22.352Z,1025.63
2019-01-04T05:27:22.347Z,1025.61
2019-01-04T05:28:22.329Z,1025.59
2019-01-04T05:29:22.313Z,1025.62
2019-01-04T05:30:22.306Z,1025.68
2019-01-04T05:31:22.303Z,1025.73
2019-01-04T05:32:22.291Z,1025.69
2019-01-04T05:33:22.295Z,1025.69
2019-01-04T05:34:22.263Z,1025.66
2019-01-04T05:35:22.252Z,1025.69
2019-01-04T05:36:22.244Z,1025.69
2019-01-04T05:37:22.274Z,1025.68
2019-01-04T05:38:22.227Z,1025.71
2019-01-04T05:39:22.218Z,1025.75
2019-01-04T05:40:22.204Z,1025.71
2019-01-04T05:41:22.188Z,1025.68
2019-01-04T05:42:22.180Z,1025.66
2019-01-04T05:43:22.176Z,1025.65
2019-01-04T05:44:22.161Z,1025.61
2019-01-04T05:45:22.150Z,1025.55
2019-01-04T05:46:22.149Z,1025.48
2019-01-04T05:47:22.132Z,1025.42
2019-01-04T05:48:22.160Z,1025.36
2019-01-04T05:49:22.136Z,1025.33
2019-01-04T05:50:22.101Z,1025.26
2019-01-04T05:51:22.090Z,1025.30
2019-01-04T05:52:22.079Z,1025.31
2019-01-04T05:53:22.064Z,1025.29
2019-01-04T05:54:22.063Z,1025.31
2019-01-04T05:55:22.048Z,1025.26
2019-01-04T05:56:22.038Z,1025.23
2019-01-04T05:57:22.033Z,1025.19
2019-01-04T05:58:22.014Z,1025.22
2019-01-04T05:59:22.014Z,1025.23
2019-01-04T06:00:21.991Z,1025.24
2019-01-04T06:01:21.991Z,1025.20
2019-01-04T06:02:21.972Z,1025.16
2019-01-04T06:03:21.979Z,1025.13
2019-01-04T06:04:21.954Z,1025.14
2019-01-04T06:05:21.947Z,1025.07
2019-01-04T06:06:21.938Z,1025.10
2019-01-04T06:07:21.926Z,1025.10
2019-01-04T06:08:21.918Z,1025.13
2019-01-04T06:09:21.904Z,1025.14
2019-01-04T06:10:21.899Z,1025.16
2019-01-04T06:11:21.886Z,1025.16
2019-01-04T06:12:21.872Z,1025.22
2019-01-04T06:13:21.903Z,1025.22
2019-01-04T06:14:21.851Z,1025.23
2019-01-04T06:15:21.840Z,1025.19
2019-01-04T06:16:21.825Z,1025.20
2019-01-04T06:17:21.815Z,1025.18
2019-01-04T06:18:21.804Z,1025.17
2019-01-04T06:19:21.801Z,1025.20
2019-01-04T06:20:21.792Z,1025.14
2019-01-04T06:21:21.772Z,1025.09
2019-01-04T06:22:21.771Z,1025.12
2019-01-04T06:23:21.760Z,1025.05
2019-01-04T06:24:21.756Z,1024.99
2019-01-04T06:25:21.737Z,1025.06
2019-01-04T06:26:21.735Z,1025.06
2019-01-04T06:27:21.715Z,1025.01
2019-01-04T06:28:21.711Z,1025.00
2019-01-04T06:29:21.700Z,1024.95
2019-01-04T06:30:21.678Z,1024.99
2019-01-04T06:31:21.671Z,1024.97
2019-01-04T06:32:21.657Z,1024.99
2019-01-04T06:33:21.646Z,1025.02
2019-01-04T06:34:21.645Z,1025.00
2019-01-04T06:35:21.634Z,1025.01
2019-01-04T06:36:29.360Z,1024.99
2019-01-04T06:37:21.617Z,1025.01
2019-01-04T06:38:21.592Z,1025.03
2019-01-04T06:39:21.587Z,1025.02
2019-01-04T06:40:21.578Z,1024.99
2019-01-04T06:41:21.578Z,1025.02
2019-01-04T06:42:21.553Z,1025.00
2019-01-04T06:43:21.547Z,1025.00
2019-01-04T06:44:21.539Z,1024.98
2019-01-04T06:45:21.521Z,1024.94
2019-01-04T06:46:21.518Z,1024.93
2019-01-04T06:47:21.500Z,1024.93
2019-01-04T06:48:21.520Z,1024.92
2019-01-04T06:49:21.482Z,1024.94
2019-01-04T06:50:21.474Z,1024.88
2019-01-04T06:51:21.459Z,1024.85
2019-01-04T06:52:21.451Z,1024.85
2019-01-04T06:53:21.438Z,1024.79
2019-01-04T06:54:21.441Z,1024.79
2019-01-04T06:55:21.431Z,1024.82
2019-01-04T06:56:21.406Z,1024.77
2019-01-04T06:57:21.403Z,1024.80
2019-01-04T06:58:21.400Z,1024.79
2019-01-04T06:59:21.390Z,1024.80
2019-01-04T07:00:21.365Z,1024.76
2019-01-04T07:01:21.356Z,1024.76
2019-01-04T07:02:21.348Z,1024.82
2019-01-04T07:03:21.343Z,1024.78
2019-01-04T07:04:21.327Z,1024.72
2019-01-04T07:05:21.326Z,1024.72
2019-01-04T07:06:21.307Z,1024.77
2019-01-04T07:07:21.292Z,1024.76
2019-01-04T07:08:21.286Z,1024.76
2019-01-04T07:09:21.276Z,1024.74
2019-01-04T07:10:21.279Z,1024.76
2019-01-04T07:11:21.252Z,1024.78
2019-01-04T07:12:21.244Z,1024.79
2019-01-04T07:13:21.230Z,1024.80
2019-01-04T07:14:21.251Z,1024.77
2019-01-04T07:15:21.209Z,1024.76
2019-01-04T07:16:21.196Z,1024.79
2019-01-04T07:17:21.193Z,1024.70
2019-01-04T07:18:21.190Z,1024.67
2019-01-04T07:19:21.171Z,1024.62
2019-01-04T07:20:21.165Z,1024.59
2019-01-04T07:21:21.155Z,1024.59
2019-01-04T07:22:21.140Z,1024.60
2019-01-04T07:23:21.125Z,1024.58
2019-01-04T07:24:21.121Z,1024.56
2019-01-04T07:25:21.144Z,1024.49
2019-01-04T07:26:21.092Z,1024.45
2019-01-04T07:27:21.082Z,1024.49
2019-01-04T07:28:21.073Z,1024.48
2019-01-04T07:29:21.068Z,1024.41
2019-01-04T07:30:21.096Z,1024.42
2019-01-04T07:31:21.049Z,1024.43
2019-01-04T07:32:21.028Z,1024.43
2019-01-04T07:33:21.047Z,1024.41
2019-01-04T07:34:21.010Z,1024.38
2019-01-04T07:35:20.998Z,1024.43
2019-01-04T07:36:20.996Z,1024.47
2019-01-04T07:37:20.977Z,1024.44
2019-01-04T07:38:20.968Z,1024.43
2019-01-04T07:39:20.961Z,1024.43
2019-01-04T07:40:20.950Z,1024.45
2019-01-04T07:41:20.948Z,1024.47
2019-01-04T07:42:20.969Z,1024.49
2019-01-04T07:43:20.919Z,1024.43
2019-01-04T07:44:20.904Z,1024.47
2019-01-04T07:45:20.893Z,1024.46
2019-01-04T07:46:20.889Z,1024.47
2019-01-04T07:47:20.871Z,1024.48
2019-01-04T07:48:20.870Z,1024.44
2019-01-04T07:49:20.851Z,1024.42
2019-01-04T07:50:20.844Z,1024.46
2019-01-04T07:51:20.835Z,1024.42
2019-01-04T07:52:20.828Z,1024.42
2019-01-04T07:53:20.820Z,1024.37
2019-01-04T07:54:20.803Z,1024.34
2019-01-04T07:55:20.794Z,1024.29
2019-01-04T07:56:20.783Z,1024.31
2019-01-04T07:57:20.775Z,1024.28
2019-01-04T07:58:20.766Z,1024.30
2019-01-04T07:59:20.746Z,1024.29
2019-01-04T08:00:20.744Z,1024.29
2019-01-04T08:01:20.725Z,1024.23
2019-01-04T08:02:20.715Z,1024.17
2019-01-04T08:03:20.731Z,1024.17
2019-01-04T08:04:20.704Z,1024.14
2019-01-04T08:05:20.723Z,1024.21
2019-01-04T08:06:20.679Z,1024.14
2019-01-04T08:07:20.662Z,1024.17
2019-01-04T08:08:20.656Z,1024.14
2019-01-04T08:09:20.641Z,1024.15
2019-01-04T08:10:20.629Z,1024.12
2019-01-04T08:11:20.627Z,1024.15
2019-01-04T08:12:20.622Z,1024.09
2019-01-04T08:13:20.605Z,1024.06
2019-01-04T08:14:20.589Z,1024.05
2019-01-04T08:15:20.578Z,1023.96
2019-01-04T08:16:20.571Z,1023.97
2019-01-04T08:17:20.571Z,1023.97
2019-01-04T08:18:20.553Z,1023.88
2019-01-04T08:19:20.571Z,1023.90
2019-01-04T08:20:20.529Z,1023.93
2019-01-04T08:21:20.514Z,1023.88
2019-01-04T08:22:20.508Z,1023.83
2019-01-04T08:23:20.494Z,1023.89
2019-01-04T08:24:20.481Z,1023.93
2019-01-04T08:25:20.487Z,1023.91
2019-01-04T08:26:20.463Z,1023.90
2019-01-04T08:27:20.450Z,1023.92
2019-01-04T08:28:20.458Z,1023.89
2019-01-04T08:29:20.430Z,1023.84
2019-01-04T08:30:20.425Z,1023.88
2019-01-04T08:31:20.407Z,1023.80
2019-01-04T08:32:20.402Z,1023.83
2019-01-04T08:33:20.396Z,1023.81
2019-01-04T08:34:20.391Z,1023.81
2019-01-04T08:35:20.406Z,1023.80
2019-01-04T08:36:20.356Z,1023.81
2019-01-04T08:37:20.350Z,1023.72
2019-01-04T08:38:20.336Z,1023.68
2019-01-04T08:39:20.324Z,1023.74
2019-01-04T08:40:20.314Z,1023.73
2019-01-04T08:41:20.317Z,1023.75
2019-01-04T08:42:20.292Z,1023.71
2019-01-04T08:43:20.287Z,1023.68
2019-01-04T08:44:20.278Z,1023.71
2019-01-04T08:45:20.266Z,1023.72
2019-01-04T08:46:20.265Z,1023.72
2019-01-04T08:47:20.241Z,1023.72
2019-01-04T08:48:20.228Z,1023.74
2019-01-04T08:49:20.225Z,1023.73
2019-01-04T08:50:20.213Z,1023.66
2019-01-04T08:51:20.213Z,1023.62
2019-01-04T08:52:20.197Z,1023.61
2019-01-04T08:53:20.176Z,1023.69
2019-01-04T08:54:20.177Z,1023.66
2019-01-04T08:55:20.157Z,1023.72
2019-01-04T08:56:20.191Z,1023.63
2019-01-04T08:57:20.143Z,1023.65
2019-01-04T08:58:20.126Z,1023.70
2019-01-04T08:59:20.114Z,1023.73
2019-01-04T09:00:20.108Z,1023.76
2019-01-04T09:01:20.094Z,1023.68
2019-01-04T09:02:20.090Z,1023.63
2019-01-04T09:03:20.073Z,1023.66
2019-01-04T09:04:20.062Z,1023.67
2019-01-04T09:05:20.051Z,1023.56
2019-01-04T09:06:20.046Z,1023.54
2019-01-04T09:07:20.044Z,1023.57
2019-01-04T09:08:20.032Z,1023.51
2019-01-04T09:09:20.010Z,1023.51
2019-01-04T09:10:20.006Z,1023.47
2019-01-04T09:11:19.993Z,1023.48
2019-01-04T09:12:20.011Z,1023.47
2019-01-04T09:13:19.972Z,1023.32
2019-01-04T09:14:19.962Z,1023.29
2019-01-04T09:15:19.947Z,1023.30
2019-01-04T09:16:19.949Z,1023.23
2019-01-04T09:17:19.929Z,1023.24
2019-01-04T09:18:19.926Z,1023.24
2019-01-04T09:19:19.905Z,1023.25
2019-01-04T09:20:19.901Z,1023.22
2019-01-04T09:21:19.892Z,1023.21
2019-01-04T09:22:19.890Z,1023.21
2019-01-04T09:23:19.866Z,1023.18
2019-01-04T09:24:19.870Z,1023.23
2019-01-04T09:25:19.850Z,1023.23
2019-01-04T09:26:19.833Z,1023.22
2019-01-04T09:27:19.826Z,1023.15
2019-01-04T09:28:19.813Z,1023.12
2019-01-04T09:29:19.830Z,1023.11
2019-01-04T09:30:19.798Z,1023.16
2019-01-04T09:31:19.785Z,1023.17
2019-01-04T09:32:19.769Z,1023.18
2019-01-04T09:33:19.767Z,1023.14
2019-01-04T09:34:19.757Z,1023.04
2019-01-04T09:35:19.755Z,1023.09
2019-01-04T09:36:19.730Z,1023.08
2019-01-04T09:37:19.721Z,1023.13
2019-01-04T09:38:19.713Z,1023.07
2019-01-04T09:39:19.702Z,1023.01
2019-01-04T09:40:19.700Z,1022.96
2019-01-04T09:41:19.683Z,1022.91
2019-01-04T09:42:19.669Z,1022.85
2019-01-04T09:43:19.659Z,1022.84
2019-01-04T09:44:19.654Z,1022.87
2019-01-04T09:45:19.678Z,1022.80
2019-01-04T09:46:19.627Z,1022.85
2019-01-04T09:47:19.616Z,1022.75
2019-01-04T09:48:19.606Z,1022.82
2019-01-04T09:49:19.594Z,1022.80
2019-01-04T09:50:19.589Z,1022.73
2019-01-04T09:51:19.633Z,1022.74
2019-01-04T09:52:19.567Z,1022.75
2019-01-04T09:53:19.555Z,1022.71
2019-01-04T09:54:19.548Z,1022.60
2019-01-04T09:55:19.541Z,1022.56
2019-01-04T09:56:19.524Z,1022.51
2019-01-04T09:57:23.435Z,1022.46
2019-01-04T09:58:19.508Z,1022.47
2019-01-04T09:59:19.492Z,1022.41
2019-01-04T10:00:19.483Z,1022.40
2019-01-04T10:01:19.476Z,1022.38
2019-01-04T10:02:19.464Z,1022.41
2019-01-04T10:03:19.460Z,1022.40
2019-01-04T10:04:19.441Z,1022.38
2019-01-04T10:05:19.428Z,1022.36
2019-01-04T10:06:19.426Z,1022.35
2019-01-04T10:07:19.432Z,1022.33
2019-01-04T10:08:19.404Z,1022.34
2019-01-04T10:09:19.395Z,1022.36
2019-01-04T10:10:19.384Z,1022.33
2019-01-04T10:11:19.368Z,1022.27
2019-01-04T10:12:19.370Z,1022.28
2019-01-04T10:13:19.360Z,1022.24
2019-01-04T10:14:19.340Z,1022.22
2019-01-04T10:15:19.331Z,1022.23
2019-01-04T10:16:19.321Z,1022.20
2019-01-04T10:17:19.307Z,1022.17
2019-01-04T10:18:19.308Z,1022.14
2019-01-04T10:19:19.289Z,1022.20
2019-01-04T10:20:19.288Z,1022.18
2019-01-04T10:21:19.263Z,1022.10
2019-01-04T10:22:19.258Z,1022.11
2019-01-04T10:23:19.264Z,1022.14
2019-01-04T10:24:19.235Z,1022.09
2019-01-04T10:25:19.222Z,1022.07
2019-01-04T10:26:19.228Z,1021.99
2019-01-04T10:27:19.202Z,1021.97
2019-01-04T10:28:19.204Z,1021.95
2019-01-04T10:29:19.232Z,1021.97
2019-01-04T10:30:19.347Z,1021.96
2019-01-04T10:31:19.173Z,1021.87
2019-01-04T10:32:19.158Z,1021.81
2019-01-04T10:33:19.145Z,1021.77
2019-01-04T10:34:19.128Z,1021.72
2019-01-04T10:35:19.118Z,1021.75
2019-01-04T10:36:19.115Z,1021.70
2019-01-04T10:37:19.098Z,1021.68
2019-01-04T10:38:19.092Z,1021.62
2019-01-04T10:39:19.078Z,1021.54
2019-01-04T10:40:19.074Z,1021.51
2019-01-04T10:41:19.065Z,1021.48
2019-01-04T10:42:19.066Z,1021.49
2019-01-04T10:43:19.046Z,1021.47
2019-01-04T10:44:19.029Z,1021.41
2019-01-04T10:45:19.020Z,1021.41
2019-01-04T10:46:19.009Z,1021.38
2019-01-04T10:47:19.007Z,1021.31
2019-01-04T10:48:18.988Z,1021.31
2019-01-04T10:49:18.978Z,1021.25
2019-01-04T10:50:18.961Z,1021.21
2019-01-04T10:51:18.971Z,1021.16
2019-01-04T10:52:18.942Z,1021.17
2019-01-04T10:53:18.939Z,1021.09
2019-01-04T10:54:18.926Z,1021.05
2019-01-04T10:55:18.916Z,1021.05
2019-01-04T10:56:18.905Z,1020.99
2019-01-04T10:57:20.025Z,1020.96
2019-01-04T10:59:34.620Z,1020.95
2019-01-04T11:00:34.594Z,1020.91
2019-01-04T11:01:34.583Z,1020.93
2019-01-04T11:02:34.579Z,1020.85
2019-01-04T11:03:34.573Z,1020.86
2019-01-04T11:04:34.556Z,1020.87
2019-01-04T11:05:34.542Z,1020.84
2019-01-04T11:06:34.532Z,1020.80
2019-01-04T11:07:34.521Z,1020.76
2019-01-04T11:08:34.522Z,1020.74
2019-01-04T11:09:34.502Z,1020.72
2019-01-04T11:10:34.731Z,1020.68
2019-01-04T11:11:34.480Z,1020.71
2019-01-04T11:12:34.476Z,1020.66
2019-01-04T11:13:34.466Z,1020.55
2019-01-04T11:14:34.460Z,1020.60
2019-01-04T11:15:34.453Z,1020.53
2019-01-04T11:16:34.432Z,1020.43
2019-01-04T11:17:34.416Z,1020.48
2019-01-04T11:18:34.424Z,1020.41
2019-01-04T11:19:34.397Z,1020.43
2019-01-04T11:20:34.394Z,1020.43
2019-01-04T11:21:34.375Z,1020.41
2019-01-04T11:22:34.372Z,1020.39
2019-01-04T11:23:34.362Z,1020.38
2019-01-04T11:24:34.347Z,1020.35
2019-01-04T11:25:34.339Z,1020.28
2019-01-04T11:26:34.338Z,1020.28
2019-01-04T11:27:34.319Z,1020.25
2019-01-04T11:28:34.310Z,1020.32
2019-01-04T11:29:34.295Z,1020.19
2019-01-04T11:30:34.315Z,1020.23
2019-01-04T11:31:34.284Z,1020.12
2019-01-04T11:32:34.266Z,1020.20
2019-01-04T11:33:34.256Z,1020.18
2019-01-04T11:34:34.245Z,1020.18
2019-01-04T11:35:34.234Z,1020.07
2019-01-04T11:36:34.256Z,1020.09
2019-01-04T11:37:34.218Z,1020.04
2019-01-04T11:38:34.206Z,1020.02
2019-01-04T11:39:34.190Z,1020.05
2019-01-04T11:40:34.178Z,1019.93
2019-01-04T11:41:34.172Z,1019.84
2019-01-04T11:42:34.174Z,1019.81
2019-01-04T11:43:42.146Z,1019.82
2019-01-04T11:44:42.108Z,1019.72
2019-01-04T11:45:41.199Z,1019.73
2019-01-04T11:46:34.121Z,1019.59
2019-01-04T11:47:34.110Z,1019.58
2019-01-04T11:48:34.098Z,1019.65
2019-01-04T11:49:34.084Z,1019.59
2019-01-04T11:50:34.079Z,1019.46
2019-01-04T11:51:34.107Z,1019.49
2019-01-04T11:52:34.060Z,1019.42
2019-01-04T11:53:34.048Z,1019.36
2019-01-04T11:54:34.039Z,1019.40
2019-01-04T11:55:34.030Z,1019.37
2019-01-04T11:56:34.019Z,1019.33
2019-01-04T11:57:34.042Z,1019.29
2019-01-04T11:58:33.998Z,1019.25
2019-01-04T11:59:33.986Z,1019.26
2019-01-04T12:00:33.975Z,1019.24
2019-01-04T12:01:33.959Z,1019.17
2019-01-04T12:02:33.949Z,1019.17
2019-01-04T12:03:33.977Z,1019.21
2019-01-04T12:04:33.938Z,1019.20
2019-01-04T12:05:33.919Z,1019.19
2019-01-04T12:06:33.910Z,1019.18